createdAt,value
2023-05-01T00:00:52.400Z,0
2023-05-01T00:02:08.701Z,0
2023-05-01T00:03:25.008Z,0
2023-05-01T00:04:41.304Z,0
2023-05-01T00:05:57.582Z,0
2023-05-01T00:07:13.879Z,0
2023-05-01T00:08:30.172Z,0
2023-05-01T00:09:46.472Z,0
2023-05-01T00:11:02.775Z,0
2023-05-01T00:12:19.069Z,0
2023-05-01T00:13:35.366Z,0
2023-05-01T00:14:50.666Z,0
2023-05-01T00:16:06.954Z,0
2023-05-01T00:17:23.256Z,0
2023-05-01T00:18:39.550Z,0
2023-05-01T00:19:55.849Z,0
2023-05-01T00:21:12.136Z,0
2023-05-01T00:22:28.446Z,0
2023-05-01T00:23:44.724Z,0
2023-05-01T00:25:01.034Z,0
2023-05-01T00:26:17.323Z,0
2023-05-01T00:27:33.625Z,0
2023-05-01T00:28:49.916Z,0
2023-05-01T00:30:06.206Z,0
2023-05-01T00:31:21.521Z,0
2023-05-01T00:32:37.815Z,0
2023-05-01T00:33:54.109Z,0
2023-05-01T00:35:10.394Z,0
2023-05-01T00:37:42.992Z,0
2023-05-01T00:38:59.287Z,0
2023-05-01T00:40:15.569Z,0
2023-05-01T00:42:48.166Z,0
2023-05-01T00:44:04.459Z,0
2023-05-01T00:45:20.750Z,0
2023-05-01T00:46:37.042Z,0
2023-05-01T00:47:52.371Z,0
2023-05-01T00:49:08.657Z,0
2023-05-01T00:50:24.953Z,0
2023-05-01T00:51:41.252Z,0
2023-05-01T00:52:57.548Z,0
2023-05-01T00:54:13.827Z,0
2023-05-01T00:55:30.135Z,0
2023-05-01T00:56:46.421Z,0
2023-05-01T00:58:02.715Z,0
2023-05-01T00:59:19.015Z,0
2023-05-01T01:00:35.323Z,0
2023-05-01T01:01:51.613Z,0
2023-05-01T01:03:07.906Z,0
2023-05-01T01:04:23.215Z,0
2023-05-01T01:06:55.805Z,0
2023-05-01T01:08:12.102Z,0
2023-05-01T01:09:28.383Z,0
2023-05-01T01:10:44.692Z,0
2023-05-01T01:12:00.989Z,0
2023-05-01T01:13:17.269Z,0
2023-05-01T01:14:33.567Z,0
2023-05-01T01:15:49.865Z,0
2023-05-01T01:17:06.159Z,0
2023-05-01T01:18:22.444Z,0
2023-05-01T01:20:55.053Z,0
2023-05-01T01:22:10.353Z,0
2023-05-01T01:23:26.658Z,0
2023-05-01T01:24:42.946Z,0
2023-05-01T01:25:59.246Z,0
2023-05-01T01:28:31.833Z,0
2023-05-01T01:29:47.135Z,0
2023-05-01T01:31:02.449Z,0
2023-05-01T01:32:18.744Z,0
2023-05-01T01:33:35.052Z,0
2023-05-01T01:34:51.338Z,0
2023-05-01T01:36:07.643Z,0
2023-05-01T01:37:23.925Z,0
2023-05-01T01:38:40.227Z,0
2023-05-01T01:39:56.522Z,0
2023-05-01T01:41:12.815Z,0
2023-05-01T01:42:29.099Z,0
2023-05-01T01:43:44.415Z,0
2023-05-01T01:46:16.024Z,0
2023-05-01T01:47:32.321Z,0
2023-05-01T01:48:48.622Z,0
2023-05-01T01:50:04.903Z,0
2023-05-01T01:51:21.206Z,0
2023-05-01T01:53:53.801Z,0
2023-05-01T01:55:10.090Z,0
2023-05-01T01:56:26.382Z,0
2023-05-01T01:58:58.982Z,0
2023-05-01T02:00:15.269Z,0
2023-05-01T02:01:30.580Z,0
2023-05-01T02:02:45.902Z,0
2023-05-01T02:04:02.180Z,0
2023-05-01T02:05:18.489Z,0
2023-05-01T02:06:34.780Z,0
2023-05-01T02:07:51.068Z,0
2023-05-01T02:09:07.366Z,0
2023-05-01T02:10:23.617Z,0
2023-05-01T02:11:39.914Z,0
2023-05-01T02:12:56.208Z,0
2023-05-01T02:14:12.502Z,0
2023-05-01T02:15:27.830Z,0
2023-05-01T02:16:43.127Z,0
2023-05-01T02:17:59.437Z,0
2023-05-01T02:19:15.720Z,0
2023-05-01T02:20:32.025Z,0
2023-05-01T02:21:48.314Z,0
2023-05-01T02:23:04.599Z,0
2023-05-01T02:24:20.896Z,0
2023-05-01T02:25:37.187Z,0
2023-05-01T02:26:53.493Z,0
2023-05-01T02:29:26.084Z,0
2023-05-01T02:30:42.377Z,0
2023-05-01T02:31:58.675Z,0
2023-05-01T02:33:13.971Z,0
2023-05-01T02:34:30.000Z,0
2023-05-01T02:37:02.857Z,0
2023-05-01T02:38:18.179Z,0
2023-05-01T02:39:33.480Z,0
2023-05-01T02:40:49.787Z,0
2023-05-01T02:42:06.079Z,0
2023-05-01T02:43:22.366Z,0
2023-05-01T02:44:38.673Z,0
2023-05-01T02:45:54.954Z,0
2023-05-01T02:47:11.266Z,0
2023-05-01T02:48:27.546Z,0
2023-05-01T02:49:43.851Z,0
2023-05-01T02:51:00.151Z,0
2023-05-01T02:52:15.400Z,1
2023-05-01T02:53:30.707Z,0
2023-05-01T02:54:47.015Z,0
2023-05-01T02:56:03.309Z,0
2023-05-01T02:57:19.605Z,0
2023-05-01T02:59:52.090Z,1
2023-05-01T03:01:08.381Z,0
2023-05-01T03:02:24.675Z,0
2023-05-01T03:03:40.929Z,2
2023-05-01T03:04:57.165Z,1
2023-05-01T03:06:13.417Z,1
2023-05-01T03:07:29.671Z,1
2023-05-01T03:08:45.922Z,2
2023-05-01T03:10:01.181Z,1
2023-05-01T03:11:17.420Z,6
2023-05-01T03:12:33.660Z,5
2023-05-01T03:13:49.903Z,3
2023-05-01T03:15:06.142Z,2
2023-05-01T03:16:22.390Z,5
2023-05-01T03:17:38.629Z,3
2023-05-01T03:18:54.862Z,5
2023-05-01T03:20:11.111Z,6
2023-05-01T03:21:27.344Z,8
2023-05-01T03:22:43.598Z,11
2023-05-01T03:23:59.827Z,14
2023-05-01T03:25:16.089Z,15
2023-05-01T03:26:31.340Z,20
2023-05-01T03:27:47.571Z,22
2023-05-01T03:30:20.057Z,27
2023-05-01T03:31:36.286Z,31
2023-05-01T03:32:52.533Z,35
2023-05-01T03:34:08.776Z,40
2023-05-01T03:35:25.007Z,45
2023-05-01T03:36:41.267Z,50
2023-05-01T03:37:57.506Z,62
2023-05-01T03:39:13.738Z,80
2023-05-01T03:40:29.969Z,94
2023-05-01T03:41:46.222Z,112
2023-05-01T03:43:01.481Z,129
2023-05-01T03:44:17.712Z,143
2023-05-01T03:45:33.967Z,157
2023-05-01T03:46:50.201Z,167
2023-05-01T03:48:06.452Z,180
2023-05-01T03:49:22.673Z,173
2023-05-01T03:50:38.929Z,166
2023-05-01T03:51:55.172Z,157
2023-05-01T03:53:11.397Z,171
2023-05-01T03:54:27.647Z,199
2023-05-01T03:55:43.887Z,231
2023-05-01T03:57:00.124Z,291
2023-05-01T03:58:16.361Z,358
2023-05-01T03:59:31.615Z,409
2023-05-01T04:00:47.860Z,499
2023-05-01T04:02:04.106Z,550
2023-05-01T04:03:20.356Z,543
2023-05-01T04:04:36.582Z,633
2023-05-01T04:05:52.832Z,754
2023-05-01T04:07:09.078Z,938
2023-05-01T04:08:25.315Z,1151
2023-05-01T04:09:40.564Z,1132
2023-05-01T04:10:56.807Z,654
2023-05-01T04:12:13.045Z,586
2023-05-01T04:13:29.292Z,888
2023-05-01T04:14:45.541Z,1072
2023-05-01T04:17:18.020Z,1304
2023-05-01T04:18:34.258Z,2593
2023-05-01T04:19:50.501Z,2684
2023-05-01T04:21:06.740Z,2754
2023-05-01T04:23:39.212Z,2454
2023-05-01T04:24:55.455Z,2647
2023-05-01T04:26:10.716Z,3035
2023-05-01T04:27:26.958Z,2512
2023-05-01T04:28:43.201Z,2518
2023-05-01T04:29:59.447Z,2937
2023-05-01T04:31:15.690Z,1981
2023-05-01T04:32:31.922Z,1748
2023-05-01T04:33:48.166Z,1772
2023-05-01T04:35:04.400Z,1690
2023-05-01T04:36:20.645Z,1681
2023-05-01T04:38:53.132Z,1728
2023-05-01T04:40:08.382Z,1778
2023-05-01T04:41:23.652Z,1826
2023-05-01T04:42:39.888Z,1822
2023-05-01T04:43:56.123Z,1853
2023-05-01T04:45:12.372Z,1890
2023-05-01T04:46:28.605Z,1939
2023-05-01T04:47:44.848Z,1946
2023-05-01T04:49:01.076Z,1924
2023-05-01T04:50:17.325Z,2008
2023-05-01T04:51:33.573Z,2054
2023-05-01T04:52:49.814Z,2068
2023-05-01T04:54:05.072Z,2087
2023-05-01T04:55:20.330Z,2107
2023-05-01T04:56:36.555Z,2146
2023-05-01T04:57:52.803Z,2133
2023-05-01T04:59:09.040Z,2147
2023-05-01T05:00:25.279Z,2169
2023-05-01T05:01:41.529Z,2207
2023-05-01T05:02:57.773Z,2252
2023-05-01T05:04:14.014Z,2318
2023-05-01T05:05:30.254Z,2386
2023-05-01T05:06:46.491Z,2451
2023-05-01T05:08:02.726Z,2505
2023-05-01T05:09:18.973Z,2564
2023-05-01T05:11:51.444Z,2770
2023-05-01T05:13:06.707Z,2886
2023-05-01T05:14:22.955Z,2903
2023-05-01T05:15:39.191Z,2865
2023-05-01T05:16:55.429Z,2861
2023-05-01T05:18:11.667Z,2857
2023-05-01T05:19:27.915Z,2874
2023-05-01T05:20:44.148Z,2911
2023-05-01T05:22:00.392Z,2871
2023-05-01T05:23:16.635Z,2797
2023-05-01T05:24:32.885Z,2779
2023-05-01T05:25:49.000Z,2906
2023-05-01T05:27:05.362Z,3011
2023-05-01T05:28:21.586Z,3114
2023-05-01T05:29:36.851Z,3178
2023-05-01T05:30:53.099Z,3210
2023-05-01T05:32:09.338Z,3220
2023-05-01T05:33:25.575Z,3127
2023-05-01T05:34:41.816Z,3177
2023-05-01T05:35:58.062Z,3145
2023-05-01T05:37:14.286Z,3154
2023-05-01T05:38:30.538Z,3170
2023-05-01T05:39:46.769Z,3155
2023-05-01T05:41:03.011Z,3185
2023-05-01T05:42:19.265Z,3331
2023-05-01T05:43:35.499Z,3496
2023-05-01T05:44:51.745Z,3561
2023-05-01T05:46:06.988Z,3644
2023-05-01T05:47:23.243Z,3774
2023-05-01T05:48:39.482Z,3855
2023-05-01T05:49:55.717Z,3924
2023-05-01T05:51:11.949Z,3992
2023-05-01T05:52:28.192Z,4054
2023-05-01T05:53:44.427Z,4047
2023-05-01T05:55:00.675Z,4061
2023-05-01T05:56:16.917Z,4030
2023-05-01T05:57:33.151Z,4120
2023-05-01T05:58:49.392Z,4132
2023-05-01T06:00:05.635Z,4104
2023-05-01T06:02:38.128Z,4163
2023-05-01T06:03:53.367Z,4137
2023-05-01T06:05:09.617Z,4162
2023-05-01T06:06:25.865Z,4063
2023-05-01T06:07:42.105Z,3994
2023-05-01T06:08:58.333Z,3976
2023-05-01T06:10:14.586Z,3909
2023-05-01T06:11:30.817Z,3845
2023-05-01T06:12:47.067Z,3762
2023-05-01T06:14:03.289Z,3697
2023-05-01T06:15:19.544Z,3670
2023-05-01T06:16:35.774Z,3700
2023-05-01T06:17:52.019Z,3616
2023-05-01T06:19:08.255Z,3627
2023-05-01T06:20:23.522Z,3611
2023-05-01T06:21:39.743Z,3623
2023-05-01T06:22:55.987Z,3696
2023-05-01T06:24:12.234Z,3691
2023-05-01T06:25:28.477Z,3727
2023-05-01T06:26:44.708Z,3813
2023-05-01T06:28:00.961Z,3676
2023-05-01T06:29:17.195Z,3583
2023-05-01T06:30:33.428Z,3668
2023-05-01T06:31:49.673Z,3599
2023-05-01T06:33:05.910Z,3632
2023-05-01T06:34:22.162Z,3603
2023-05-01T06:35:38.386Z,3594
2023-05-01T06:36:53.656Z,3623
2023-05-01T06:38:09.896Z,3653
2023-05-01T06:40:42.363Z,3638
2023-05-01T06:41:58.607Z,3561
2023-05-01T06:43:14.843Z,3535
2023-05-01T06:44:31.083Z,3544
2023-05-01T06:45:47.332Z,3558
2023-05-01T06:48:19.802Z,3576
2023-05-01T06:49:36.048Z,3613
2023-05-01T06:50:52.295Z,3638
2023-05-01T06:52:08.538Z,3623
2023-05-01T06:53:23.796Z,3627
2023-05-01T06:54:40.033Z,3633
2023-05-01T06:55:56.273Z,3621
2023-05-01T06:57:12.514Z,3585
2023-05-01T06:58:28.739Z,3690
2023-05-01T06:59:44.989Z,3677
2023-05-01T07:01:01.220Z,3660
2023-05-01T07:02:17.459Z,3691
2023-05-01T07:03:33.696Z,3739
2023-05-01T07:04:49.945Z,3753
2023-05-01T07:06:06.189Z,3714
2023-05-01T07:07:22.435Z,3748
2023-05-01T07:08:38.658Z,3726
2023-05-01T07:09:53.924Z,3687
2023-05-01T07:11:10.162Z,3711
2023-05-01T07:12:26.395Z,3712
2023-05-01T07:13:42.647Z,3729
2023-05-01T07:14:58.871Z,3809
2023-05-01T07:16:15.123Z,3726
2023-05-01T07:17:31.354Z,3664
2023-05-01T07:18:47.595Z,3679
2023-05-01T07:20:03.848Z,3679
2023-05-01T07:21:20.077Z,3747
2023-05-01T07:22:36.319Z,3726
2023-05-01T07:23:52.569Z,3685
2023-05-01T07:25:08.812Z,3608
2023-05-01T07:26:24.066Z,3617
2023-05-01T07:28:56.541Z,3643
2023-05-01T07:30:12.771Z,3675
2023-05-01T07:31:29.020Z,3694
2023-05-01T07:32:45.253Z,3747
2023-05-01T07:34:01.506Z,3720
2023-05-01T07:35:17.739Z,3684
2023-05-01T07:36:33.976Z,3724
2023-05-01T07:37:50.226Z,3814
2023-05-01T07:39:06.456Z,3747
2023-05-01T07:40:22.696Z,3738
2023-05-01T07:41:38.936Z,3809
2023-05-01T07:44:10.438Z,3762
2023-05-01T07:45:26.667Z,3769
2023-05-01T07:46:42.910Z,3843
2023-05-01T07:47:59.151Z,3845
2023-05-01T07:49:15.386Z,3862
2023-05-01T07:50:31.643Z,3875
2023-05-01T07:51:47.865Z,3917
2023-05-01T07:53:04.107Z,3923
2023-05-01T07:54:20.352Z,3897
2023-05-01T07:55:36.585Z,3909
2023-05-01T07:56:52.836Z,3898
2023-05-01T07:58:09.082Z,3900
2023-05-01T07:59:24.326Z,3874
2023-05-01T08:00:40.560Z,3866
2023-05-01T08:01:56.817Z,3827
2023-05-01T08:03:13.043Z,3797
2023-05-01T08:04:29.281Z,3778
2023-05-01T08:05:45.531Z,3717
2023-05-01T08:07:01.772Z,3720
2023-05-01T08:08:18.016Z,3726
2023-05-01T08:09:34.259Z,3700
2023-05-01T08:10:50.500Z,3668
2023-05-01T08:12:06.726Z,3684
2023-05-01T08:13:22.970Z,3708
2023-05-01T08:14:39.208Z,3757
2023-05-01T08:15:54.470Z,3773
2023-05-01T08:17:10.712Z,3934
2023-05-01T08:18:26.940Z,3735
2023-05-01T08:19:43.187Z,3859
2023-05-01T08:20:59.431Z,3752
2023-05-01T08:22:15.667Z,3940
2023-05-01T08:23:31.908Z,3771
2023-05-01T08:24:47.177Z,3951
2023-05-01T08:27:19.637Z,3973
2023-05-01T08:28:35.896Z,4026
2023-05-01T08:29:52.133Z,4039
2023-05-01T08:31:08.360Z,3960
2023-05-01T08:32:24.606Z,3990
2023-05-01T08:33:40.843Z,3957
2023-05-01T08:34:57.088Z,3836
2023-05-01T08:36:13.327Z,3821
2023-05-01T08:37:29.563Z,3829
2023-05-01T08:38:45.814Z,3774
2023-05-01T08:40:02.042Z,3742
2023-05-01T08:41:17.293Z,3776
2023-05-01T08:42:33.552Z,3788
2023-05-01T08:43:49.772Z,3745
2023-05-01T08:45:06.029Z,3752
2023-05-01T08:46:22.268Z,3760
2023-05-01T08:47:38.501Z,3763
2023-05-01T08:48:54.749Z,3775
2023-05-01T08:50:10.986Z,3788
2023-05-01T08:51:27.231Z,3840
2023-05-01T08:52:43.453Z,3882
2023-05-01T08:53:59.697Z,3888
2023-05-01T08:55:15.934Z,3898
2023-05-01T08:56:32.172Z,3894
2023-05-01T08:57:47.446Z,3847
2023-05-01T08:59:03.686Z,3995
2023-05-01T09:00:19.923Z,4008
2023-05-01T09:01:36.158Z,4025
2023-05-01T09:02:52.395Z,4062
2023-05-01T09:04:08.637Z,4082
2023-05-01T09:05:24.880Z,4141
2023-05-01T09:06:41.116Z,4166
2023-05-01T09:07:57.365Z,4188
2023-05-01T09:09:13.590Z,4215
2023-05-01T09:10:29.840Z,4176
2023-05-01T09:11:46.072Z,4313
2023-05-01T09:13:02.318Z,4299
2023-05-01T09:14:17.575Z,4335
2023-05-01T09:15:33.812Z,4420
2023-05-01T09:16:50.054Z,4465
2023-05-01T09:18:06.288Z,4626
2023-05-01T09:19:22.537Z,4672
2023-05-01T09:20:38.764Z,4784
2023-05-01T09:21:55.008Z,5031
2023-05-01T09:23:11.245Z,5067
2023-05-01T09:24:27.494Z,4864
2023-05-01T09:25:43.736Z,4956
2023-05-01T09:26:59.971Z,4941
2023-05-01T09:28:16.204Z,4899
2023-05-01T09:29:32.443Z,5087
2023-05-01T09:30:47.702Z,5081
2023-05-01T09:32:03.946Z,5100
2023-05-01T09:33:20.198Z,5032
2023-05-01T09:34:36.436Z,5103
2023-05-01T09:35:52.675Z,5229
2023-05-01T09:37:08.913Z,5354
2023-05-01T09:38:25.157Z,5453
2023-05-01T09:39:41.397Z,5319
2023-05-01T09:40:57.623Z,5177
2023-05-01T09:42:13.871Z,5372
2023-05-01T09:43:30.104Z,5450
2023-05-01T09:44:46.349Z,5702
2023-05-01T09:46:02.585Z,5529
2023-05-01T09:47:17.845Z,5491
2023-05-01T09:48:34.073Z,5623
2023-05-01T09:49:50.327Z,5530
2023-05-01T09:51:06.569Z,5400
2023-05-01T09:52:22.792Z,5529
2023-05-01T09:53:39.050Z,5416
2023-05-01T09:54:55.279Z,5695
2023-05-01T09:56:11.529Z,5425
2023-05-01T09:57:27.775Z,5796
2023-05-01T09:58:43.996Z,5578
2023-05-01T10:00:00.239Z,5871
2023-05-01T10:01:16.487Z,5956
2023-05-01T10:02:32.724Z,5912
2023-05-01T10:03:47.971Z,6049
2023-05-01T10:05:04.207Z,6329
2023-05-01T10:06:20.462Z,6425
2023-05-01T10:07:36.705Z,6352
2023-05-01T10:08:52.947Z,6374
2023-05-01T10:10:09.169Z,6463
2023-05-01T10:11:25.424Z,6168
2023-05-01T10:12:41.658Z,6376
2023-05-01T10:13:57.900Z,6375
2023-05-01T10:15:14.138Z,6571
2023-05-01T10:16:30.368Z,6481
2023-05-01T10:17:46.613Z,6373
2023-05-01T10:19:02.866Z,6291
2023-05-01T10:20:18.110Z,6212
2023-05-01T10:21:34.361Z,6024
2023-05-01T10:22:50.591Z,5930
2023-05-01T10:24:06.838Z,5921
2023-05-01T10:25:23.068Z,5772
2023-05-01T10:26:39.311Z,5537
2023-05-01T10:29:11.798Z,5511
2023-05-01T10:30:28.026Z,5667
2023-05-01T10:31:44.268Z,5726
2023-05-01T10:33:00.517Z,5651
2023-05-01T10:34:16.751Z,5557
2023-05-01T10:35:32.992Z,5457
2023-05-01T10:36:48.261Z,5373
2023-05-01T10:38:04.479Z,5236
2023-05-01T10:39:20.721Z,5173
2023-05-01T10:40:36.972Z,5118
2023-05-01T10:41:53.210Z,5001
2023-05-01T10:43:09.449Z,4928
2023-05-01T10:44:25.678Z,4949
2023-05-01T10:45:41.933Z,4945
2023-05-01T10:46:58.168Z,4861
2023-05-01T10:48:14.400Z,4818
2023-05-01T10:49:30.648Z,4828
2023-05-01T10:50:46.889Z,4860
2023-05-01T10:52:03.120Z,4893
2023-05-01T10:53:18.387Z,4922
2023-05-01T10:54:34.616Z,4924
2023-05-01T10:55:50.862Z,4978
2023-05-01T10:57:07.104Z,4998
2023-05-01T10:59:39.588Z,5205
2023-05-01T11:00:55.818Z,5371
2023-05-01T11:02:12.048Z,5606
2023-05-01T11:03:28.302Z,5699
2023-05-01T11:04:44.548Z,5896
2023-05-01T11:06:00.777Z,6291
2023-05-01T11:08:33.248Z,6868
2023-05-01T11:09:48.512Z,6988
2023-05-01T11:11:04.749Z,7251
2023-05-01T11:12:20.997Z,7458
2023-05-01T11:13:37.237Z,7538
2023-05-01T11:14:53.482Z,7423
2023-05-01T11:16:09.711Z,7168
2023-05-01T11:17:25.954Z,7083
2023-05-01T11:18:42.201Z,7102
2023-05-01T11:19:58.430Z,7142
2023-05-01T11:21:14.682Z,6949
2023-05-01T11:22:30.921Z,6897
2023-05-01T11:23:47.142Z,6756
2023-05-01T11:25:03.397Z,6631
2023-05-01T11:26:18.646Z,6312
2023-05-01T11:27:34.889Z,6001
2023-05-01T11:28:51.138Z,5937
2023-05-01T11:30:07.377Z,5866
2023-05-01T11:31:23.599Z,5738
2023-05-01T11:32:39.856Z,5470
2023-05-01T11:33:56.083Z,5333
2023-05-01T11:35:12.324Z,5232
2023-05-01T11:36:28.572Z,5111
2023-05-01T11:37:44.811Z,4979
2023-05-01T11:39:01.041Z,4764
2023-05-01T11:40:17.279Z,4715
2023-05-01T11:41:33.526Z,4666
2023-05-01T11:42:48.774Z,4631
2023-05-01T11:44:05.025Z,4619
2023-05-01T11:45:21.265Z,4594
2023-05-01T11:47:53.735Z,4503
2023-05-01T11:49:09.974Z,4539
2023-05-01T11:50:26.227Z,4521
2023-05-01T11:51:42.470Z,4491
2023-05-01T11:52:58.696Z,4453
2023-05-01T11:54:14.945Z,4406
2023-05-01T11:55:31.171Z,4388
2023-05-01T11:56:47.430Z,4529
2023-05-01T11:58:03.665Z,4595
2023-05-01T11:59:18.920Z,4391
2023-05-01T12:00:35.162Z,4430
2023-05-01T12:01:51.398Z,4460
2023-05-01T12:03:07.640Z,4437
2023-05-01T12:04:23.866Z,4355
2023-05-01T12:05:40.113Z,4352
2023-05-01T12:06:56.357Z,4326
2023-05-01T12:08:12.589Z,4324
2023-05-01T12:09:28.835Z,4438
2023-05-01T12:10:45.083Z,4310
2023-05-01T12:12:01.325Z,4406
2023-05-01T12:13:17.550Z,4312
2023-05-01T12:14:33.798Z,4202
2023-05-01T12:15:49.063Z,4244
2023-05-01T12:17:05.285Z,4068
2023-05-01T12:18:21.527Z,4226
2023-05-01T12:19:37.766Z,4287
2023-05-01T12:20:54.021Z,4292
2023-05-01T12:22:10.262Z,4328
2023-05-01T12:23:26.482Z,4399
2023-05-01T12:24:42.737Z,4481
2023-05-01T12:25:58.974Z,4673
2023-05-01T12:27:15.209Z,4771
2023-05-01T12:28:31.453Z,4812
2023-05-01T12:29:47.698Z,4848
2023-05-01T12:31:03.931Z,4914
2023-05-01T12:32:19.195Z,4925
2023-05-01T12:33:35.436Z,4893
2023-05-01T12:34:51.676Z,4853
2023-05-01T12:36:07.912Z,4747
2023-05-01T12:38:40.391Z,4772
2023-05-01T12:39:55.638Z,4900
2023-05-01T12:41:11.886Z,5086
2023-05-01T12:42:28.133Z,4896
2023-05-01T12:43:44.374Z,4896
2023-05-01T12:45:00.598Z,4923
2023-05-01T12:46:16.845Z,5095
2023-05-01T12:47:33.078Z,5215
2023-05-01T12:48:49.334Z,5265
2023-05-01T12:50:05.560Z,5371
2023-05-01T12:51:21.804Z,5606
2023-05-01T12:52:38.037Z,5836
2023-05-01T12:53:54.294Z,5658
2023-05-01T12:55:10.529Z,5765
2023-05-01T12:56:25.790Z,5698
2023-05-01T12:57:42.019Z,5591
2023-05-01T12:58:58.262Z,5690
2023-05-01T13:00:14.507Z,5737
2023-05-01T13:01:30.737Z,5690
2023-05-01T13:02:46.989Z,5580
2023-05-01T13:04:03.223Z,5479
2023-05-01T13:05:19.453Z,5572
2023-05-01T13:06:35.711Z,5584
2023-05-01T13:07:51.936Z,5701
2023-05-01T13:09:08.173Z,5965
2023-05-01T13:10:24.417Z,6295
2023-05-01T13:11:40.651Z,6398
2023-05-01T13:12:55.926Z,6595
2023-05-01T13:14:12.164Z,6758
2023-05-01T13:16:44.636Z,7114
2023-05-01T13:18:00.878Z,7236
2023-05-01T13:19:17.109Z,7331
2023-05-01T13:20:33.350Z,7322
2023-05-01T13:21:49.590Z,7429
2023-05-01T13:23:05.826Z,7442
2023-05-01T13:24:22.068Z,7475
2023-05-01T13:25:38.321Z,7603
2023-05-01T13:26:54.551Z,7658
2023-05-01T13:28:10.801Z,7686
2023-05-01T13:29:26.043Z,7697
2023-05-01T13:30:42.297Z,7606
2023-05-01T13:31:58.521Z,7452
2023-05-01T13:33:14.781Z,7362
2023-05-01T13:34:31.007Z,7280
2023-05-01T13:35:47.260Z,7262
2023-05-01T13:37:03.489Z,7242
2023-05-01T13:38:19.727Z,7211
2023-05-01T13:39:35.974Z,7157
2023-05-01T13:40:52.216Z,7001
2023-05-01T13:42:08.460Z,6886
2023-05-01T13:43:24.685Z,6955
2023-05-01T13:44:40.923Z,7041
2023-05-01T13:45:56.185Z,7003
2023-05-01T13:47:12.436Z,6939
2023-05-01T13:48:28.664Z,6948
2023-05-01T13:49:44.913Z,6949
2023-05-01T13:51:01.143Z,7023
2023-05-01T13:52:17.392Z,7143
2023-05-01T13:54:49.875Z,7449
2023-05-01T13:56:06.102Z,7475
2023-05-01T13:57:22.340Z,7524
2023-05-01T13:58:38.585Z,7563
2023-05-01T13:59:54.836Z,7571
2023-05-01T14:01:11.069Z,7567
2023-05-01T14:02:26.313Z,7543
2023-05-01T14:03:42.567Z,7516
2023-05-01T14:04:58.802Z,7481
2023-05-01T14:06:15.047Z,7531
2023-05-01T14:07:31.290Z,7600
2023-05-01T14:08:47.523Z,7613
2023-05-01T14:10:03.768Z,7578
2023-05-01T14:11:19.994Z,7500
2023-05-01T14:12:36.241Z,7489
2023-05-01T14:13:52.484Z,7470
2023-05-01T14:15:08.722Z,7445
2023-05-01T14:16:24.958Z,7411
2023-05-01T14:17:41.200Z,7435
2023-05-01T14:18:56.454Z,7440
2023-05-01T14:20:12.698Z,7432
2023-05-01T14:21:28.929Z,7429
2023-05-01T14:22:45.184Z,7385
2023-05-01T14:24:01.411Z,7316
2023-05-01T14:25:17.655Z,7274
2023-05-01T14:26:33.891Z,7261
2023-05-01T14:27:50.136Z,7198
2023-05-01T14:29:06.371Z,7130
2023-05-01T14:30:22.611Z,7097
2023-05-01T14:31:38.859Z,7065
2023-05-01T14:32:55.088Z,7056
2023-05-01T14:34:11.328Z,7055
2023-05-01T14:35:26.583Z,7085
2023-05-01T14:36:42.842Z,7076
2023-05-01T14:37:59.078Z,6927
2023-05-01T14:39:15.311Z,6852
2023-05-01T14:40:31.561Z,6776
2023-05-01T14:41:47.783Z,6632
2023-05-01T14:43:04.024Z,6465
2023-05-01T14:44:20.279Z,6322
2023-05-01T14:45:36.514Z,6248
2023-05-01T14:46:52.752Z,6237
2023-05-01T14:48:08.995Z,6256
2023-05-01T14:49:25.223Z,6236
2023-05-01T14:50:41.474Z,6229
2023-05-01T14:51:56.725Z,6201
2023-05-01T14:53:12.957Z,6083
2023-05-01T14:54:29.202Z,6022
2023-05-01T14:55:45.443Z,5926
2023-05-01T14:57:01.694Z,5852
2023-05-01T14:58:17.931Z,5762
2023-05-01T14:59:34.168Z,5722
2023-05-01T15:00:50.401Z,5699
2023-05-01T15:02:06.654Z,5711
2023-05-01T15:03:22.891Z,5718
2023-05-01T15:04:39.128Z,5738
2023-05-01T15:05:55.365Z,5759
2023-05-01T15:08:27.835Z,5805
2023-05-01T15:09:43.092Z,5830
2023-05-01T15:10:59.333Z,5848
2023-05-01T15:12:15.587Z,5837
2023-05-01T15:13:31.814Z,5785
2023-05-01T15:14:48.066Z,5724
2023-05-01T15:16:04.308Z,5639
2023-05-01T15:17:20.546Z,5512
2023-05-01T15:18:36.790Z,5378
2023-05-01T15:19:53.028Z,5304
2023-05-01T15:21:09.267Z,5246
2023-05-01T15:22:25.492Z,5132
2023-05-01T15:23:41.742Z,5017
2023-05-01T15:24:57.984Z,4842
2023-05-01T15:26:13.238Z,4757
2023-05-01T15:27:29.478Z,4650
2023-05-01T15:28:45.705Z,4560
2023-05-01T15:30:01.948Z,4490
2023-05-01T15:31:18.203Z,4442
2023-05-01T15:32:34.444Z,4428
2023-05-01T15:33:50.676Z,4423
2023-05-01T15:35:06.914Z,4392
2023-05-01T15:36:23.155Z,4347
2023-05-01T15:37:39.387Z,4337
2023-05-01T15:38:55.644Z,4377
2023-05-01T15:40:11.878Z,4427
2023-05-01T15:41:28.113Z,4449
2023-05-01T15:42:43.360Z,4445
2023-05-01T15:43:59.601Z,4403
2023-05-01T15:45:15.846Z,4339
2023-05-01T15:46:32.096Z,4237
2023-05-01T15:47:48.328Z,4123
2023-05-01T15:49:04.559Z,4000
2023-05-01T15:50:20.809Z,3914
2023-05-01T15:51:37.054Z,3826
2023-05-01T15:52:53.285Z,3805
2023-05-01T15:54:09.000Z,3786
2023-05-01T15:55:25.768Z,3780
2023-05-01T15:56:42.012Z,3737
2023-05-01T15:57:58.249Z,3698
2023-05-01T15:59:13.496Z,3598
2023-05-01T16:00:29.747Z,3502
2023-05-01T16:01:45.980Z,3406
2023-05-01T16:03:02.227Z,3338
2023-05-01T16:04:18.470Z,3268
2023-05-01T16:05:34.698Z,3202
2023-05-01T16:06:50.941Z,3153
2023-05-01T16:08:07.193Z,3108
2023-05-01T16:09:23.420Z,3093
2023-05-01T16:10:39.673Z,3099
2023-05-01T16:11:55.911Z,3001
2023-05-01T16:13:12.133Z,2980
2023-05-01T16:14:28.374Z,3188
2023-05-01T16:15:43.640Z,2832
2023-05-01T16:16:59.883Z,2508
2023-05-01T16:18:16.113Z,2617
2023-05-01T16:19:32.353Z,2839
2023-05-01T16:20:48.602Z,2753
2023-05-01T16:22:04.830Z,2611
2023-05-01T16:23:21.082Z,2555
2023-05-01T16:24:37.316Z,2564
2023-05-01T16:25:53.000Z,2616
2023-05-01T16:27:09.798Z,2482
2023-05-01T16:28:26.036Z,2285
2023-05-01T16:29:42.279Z,2291
2023-05-01T16:30:58.527Z,2426
2023-05-01T16:32:13.780Z,2484
2023-05-01T16:33:30.004Z,2247
2023-05-01T16:34:46.244Z,2155
2023-05-01T16:36:02.485Z,2071
2023-05-01T16:37:18.740Z,1817
2023-05-01T16:38:34.968Z,1711
2023-05-01T16:39:51.203Z,1659
2023-05-01T16:41:07.452Z,1553
2023-05-01T16:42:23.690Z,1459
2023-05-01T16:44:56.176Z,1503
2023-05-01T16:46:12.408Z,1550
2023-05-01T16:47:28.659Z,1577
2023-05-01T16:48:43.907Z,1516
2023-05-01T16:50:00.146Z,1440
2023-05-01T16:51:16.390Z,1487
2023-05-01T16:52:32.635Z,1524
2023-05-01T16:53:48.871Z,1395
2023-05-01T16:55:04.133Z,1297
2023-05-01T16:57:36.612Z,1207
2023-05-01T16:58:52.843Z,1138
2023-05-01T17:00:09.082Z,1075
2023-05-01T17:01:25.323Z,1126
2023-05-01T17:02:41.577Z,1205
2023-05-01T17:03:57.810Z,1210
2023-05-01T17:05:14.045Z,1134
2023-05-01T17:06:30.286Z,1091
2023-05-01T17:07:46.526Z,1073
2023-05-01T17:09:02.771Z,1094
2023-05-01T17:10:19.003Z,954
2023-05-01T17:11:34.258Z,764
2023-05-01T17:12:50.501Z,651
2023-05-01T17:14:06.751Z,608
2023-05-01T17:15:22.990Z,605
2023-05-01T17:16:39.223Z,596
2023-05-01T17:17:55.460Z,562
2023-05-01T17:19:11.702Z,520
2023-05-01T17:20:27.941Z,522
2023-05-01T17:21:44.175Z,512
2023-05-01T17:23:00.417Z,510
2023-05-01T17:24:16.654Z,600
2023-05-01T17:25:32.899Z,660
2023-05-01T17:26:49.140Z,620
2023-05-01T17:28:04.402Z,547
2023-05-01T17:29:20.640Z,579
2023-05-01T17:30:36.869Z,655
2023-05-01T17:31:53.126Z,684
2023-05-01T17:33:09.347Z,655
2023-05-01T17:34:25.604Z,563
2023-05-01T17:35:41.844Z,473
2023-05-01T17:36:58.078Z,467
2023-05-01T17:38:14.325Z,492
2023-05-01T17:39:30.564Z,542
2023-05-01T17:40:46.796Z,551
2023-05-01T17:42:03.027Z,525
2023-05-01T17:43:19.273Z,500
2023-05-01T17:44:34.533Z,492
2023-05-01T17:45:50.765Z,476
2023-05-01T17:47:07.008Z,455
2023-05-01T17:48:23.257Z,439
2023-05-01T17:49:39.499Z,433
2023-05-01T17:50:55.737Z,407
2023-05-01T17:52:11.981Z,383
2023-05-01T17:53:28.201Z,352
2023-05-01T17:54:44.454Z,318
2023-05-01T17:56:00.688Z,304
2023-05-01T17:58:33.166Z,263